Terminal Aerodrome Forecast
Issued by NWS

Current Version | Previous Version | Text Only | Print | Product List | Glossary On
Versions: 1 2 3 4 5 6 7 8 9 10 11 12
828
FTUS45 KRIW 052320
TAFRKS
TAF
KRKS 052320Z 0600/0624 25016G26KT P6SM SCT050
     FM060100 25017KT P6SM SCT050
     FM061900 26025G32KT P6SM BKN050=

USA.gov is the U.S. government's official web portal to all federal, state and local government web resources and services.